sensor_id;sensor_type;location;lat;lon;timestamp;temperature;humidity
42037;DHT22;30340;52.004;5.908;2022-10-16T00:01:34;13.90;86.10
42037;DHT22;30340;52.004;5.908;2022-10-16T00:04:01;13.90;86.00
42037;DHT22;30340;52.004;5.908;2022-10-16T00:06:28;13.90;86.00
42037;DHT22;30340;52.004;5.908;2022-10-16T00:08:53;13.80;86.00
42037;DHT22;30340;52.004;5.908;2022-10-16T00:11:22;13.90;86.00
42037;DHT22;30340;52.004;5.908;2022-10-16T00:13:49;13.90;86.00
42037;DHT22;30340;52.004;5.908;2022-10-16T00:16:16;13.90;86.00
42037;DHT22;30340;52.004;5.908;2022-10-16T00:18:42;13.80;86.00
42037;DHT22;30340;52.004;5.908;2022-10-16T00:21:10;13.80;86.00
42037;DHT22;30340;52.004;5.908;2022-10-16T00:23:36;13.80;86.00
42037;DHT22;30340;52.004;5.908;2022-10-16T00:26:05;13.80;86.00
42037;DHT22;30340;52.004;5.908;2022-10-16T00:28:31;13.80;86.00
42037;DHT22;30340;52.004;5.908;2022-10-16T00:30:57;13.80;86.10
42037;DHT22;30340;52.004;5.908;2022-10-16T00:33:22;13.80;86.00
42037;DHT22;30340;52.004;5.908;2022-10-16T00:35:48;13.80;86.10
42037;DHT22;30340;52.004;5.908;2022-10-16T00:38:14;13.80;86.10
42037;DHT22;30340;52.004;5.908;2022-10-16T00:40:40;13.80;86.20
42037;DHT22;30340;52.004;5.908;2022-10-16T00:43:35;13.80;86.20
42037;DHT22;30340;52.004;5.908;2022-10-16T00:46:03;13.80;86.30
42037;DHT22;30340;52.004;5.908;2022-10-16T00:48:30;13.70;86.90
42037;DHT22;30340;52.004;5.908;2022-10-16T00:50:57;13.70;86.40
42037;DHT22;30340;52.004;5.908;2022-10-16T00:53:23;13.70;86.50
42037;DHT22;30340;52.004;5.908;2022-10-16T00:55:50;13.70;86.60
42037;DHT22;30340;52.004;5.908;2022-10-16T00:58:16;13.70;86.60
42037;DHT22;30340;52.004;5.908;2022-10-16T01:00:42;13.70;86.70
42037;DHT22;30340;52.004;5.908;2022-10-16T01:03:43;13.70;86.70
42037;DHT22;30340;52.004;5.908;2022-10-16T01:08:59;13.70;86.80
42037;DHT22;30340;52.004;5.908;2022-10-16T01:11:45;13.70;87.00
42037;DHT22;30340;52.004;5.908;2022-10-16T01:14:46;13.70;87.00
42037;DHT22;30340;52.004;5.908;2022-10-16T01:17:39;13.70;87.10
42037;DHT22;30340;52.004;5.908;2022-10-16T01:20:26;13.70;87.20
42037;DHT22;30340;52.004;5.908;2022-10-16T01:29:06;13.70;87.40
42037;DHT22;30340;52.004;5.908;2022-10-16T01:31:35;13.70;87.50
42037;DHT22;30340;52.004;5.908;2022-10-16T01:34:25;13.70;87.50
42037;DHT22;30340;52.004;5.908;2022-10-16T01:37:04;13.70;87.60
42037;DHT22;30340;52.004;5.908;2022-10-16T01:39:33;13.70;87.70
42037;DHT22;30340;52.004;5.908;2022-10-16T01:42:20;13.70;88.10
42037;DHT22;30340;52.004;5.908;2022-10-16T01:44:48;13.70;87.80
42037;DHT22;30340;52.004;5.908;2022-10-16T01:47:15;13.70;87.80
42037;DHT22;30340;52.004;5.908;2022-10-16T01:49:43;13.70;87.90
42037;DHT22;30340;52.004;5.908;2022-10-16T01:52:13;13.70;88.00
42037;DHT22;30340;52.004;5.908;2022-10-16T01:54:42;13.70;88.10
42037;DHT22;30340;52.004;5.908;2022-10-16T01:57:10;13.80;88.20
42037;DHT22;30340;52.004;5.908;2022-10-16T01:59:40;13.80;88.30
42037;DHT22;30340;52.004;5.908;2022-10-16T02:02:09;13.80;88.40
42037;DHT22;30340;52.004;5.908;2022-10-16T02:04:39;13.80;88.30
42037;DHT22;30340;52.004;5.908;2022-10-16T02:07:06;13.80;88.50
42037;DHT22;30340;52.004;5.908;2022-10-16T02:09:34;13.70;88.60
42037;DHT22;30340;52.004;5.908;2022-10-16T02:12:06;13.70;88.70
42037;DHT22;30340;52.004;5.908;2022-10-16T02:14:34;13.80;88.90
42037;DHT22;30340;52.004;5.908;2022-10-16T02:17:01;13.80;88.80
42037;DHT22;30340;52.004;5.908;2022-10-16T02:19:26;13.80;88.80
42037;DHT22;30340;52.004;5.908;2022-10-16T02:21:58;13.80;89.40
42037;DHT22;30340;52.004;5.908;2022-10-16T02:27:13;13.80;88.80
42037;DHT22;30340;52.004;5.908;2022-10-16T02:29:45;13.90;88.90
42037;DHT22;30340;52.004;5.908;2022-10-16T02:32:16;13.80;88.90
42037;DHT22;30340;52.004;5.908;2022-10-16T02:34:44;13.80;89.10
42037;DHT22;30340;52.004;5.908;2022-10-16T02:37:10;13.80;89.10
42037;DHT22;30340;52.004;5.908;2022-10-16T02:39:36;13.80;89.20
42037;DHT22;30340;52.004;5.908;2022-10-16T02:42:03;13.80;89.30
42037;DHT22;30340;52.004;5.908;2022-10-16T02:44:29;13.80;89.40
42037;DHT22;30340;52.004;5.908;2022-10-16T02:46:55;13.80;89.40
42037;DHT22;30340;52.004;5.908;2022-10-16T02:49:20;13.80;89.40
42037;DHT22;30340;52.004;5.908;2022-10-16T02:51:46;13.80;89.40
42037;DHT22;30340;52.004;5.908;2022-10-16T02:54:11;13.80;89.30
42037;DHT22;30340;52.004;5.908;2022-10-16T02:56:38;13.80;89.30
42037;DHT22;30340;52.004;5.908;2022-10-16T02:59:04;13.80;89.30
42037;DHT22;30340;52.004;5.908;2022-10-16T03:01:29;13.80;89.30
42037;DHT22;30340;52.004;5.908;2022-10-16T03:03:55;13.80;89.30
42037;DHT22;30340;52.004;5.908;2022-10-16T03:06:21;13.70;89.30
42037;DHT22;30340;52.004;5.908;2022-10-16T03:08:46;13.70;89.50
42037;DHT22;30340;52.004;5.908;2022-10-16T03:11:12;13.70;89.60
42037;DHT22;30340;52.004;5.908;2022-10-16T03:13:37;13.70;89.70
42037;DHT22;30340;52.004;5.908;2022-10-16T03:16:03;13.70;89.80
42037;DHT22;30340;52.004;5.908;2022-10-16T03:18:29;13.70;89.80
42037;DHT22;30340;52.004;5.908;2022-10-16T03:20:54;13.80;89.80
42037;DHT22;30340;52.004;5.908;2022-10-16T03:23:20;13.80;89.70
42037;DHT22;30340;52.004;5.908;2022-10-16T03:25:45;13.80;89.80
42037;DHT22;30340;52.004;5.908;2022-10-16T03:28:11;13.70;89.70
42037;DHT22;30340;52.004;5.908;2022-10-16T03:30:37;13.70;89.70
42037;DHT22;30340;52.004;5.908;2022-10-16T03:33:05;13.70;89.70
42037;DHT22;30340;52.004;5.908;2022-10-16T03:35:30;13.70;89.70
42037;DHT22;30340;52.004;5.908;2022-10-16T03:37:56;13.70;89.70
42037;DHT22;30340;52.004;5.908;2022-10-16T03:40:22;13.70;89.80
42037;DHT22;30340;52.004;5.908;2022-10-16T03:42:47;13.70;89.80
42037;DHT22;30340;52.004;5.908;2022-10-16T03:45:13;13.70;89.90
42037;DHT22;30340;52.004;5.908;2022-10-16T03:47:38;13.70;89.90
42037;DHT22;30340;52.004;5.908;2022-10-16T03:50:04;13.70;90.00
42037;DHT22;30340;52.004;5.908;2022-10-16T03:52:30;13.70;90.00
42037;DHT22;30340;52.004;5.908;2022-10-16T03:54:57;13.70;90.00
42037;DHT22;30340;52.004;5.908;2022-10-16T03:57:23;13.60;90.00
42037;DHT22;30340;52.004;5.908;2022-10-16T03:59:48;13.70;90.00
42037;DHT22;30340;52.004;5.908;2022-10-16T04:02:14;13.70;90.00
42037;DHT22;30340;52.004;5.908;2022-10-16T04:04:39;13.70;90.00
42037;DHT22;30340;52.004;5.908;2022-10-16T04:07:05;13.70;90.00
42037;DHT22;30340;52.004;5.908;2022-10-16T04:09:30;13.60;90.00
42037;DHT22;30340;52.004;5.908;2022-10-16T04:11:56;13.60;90.00
42037;DHT22;30340;52.004;5.908;2022-10-16T04:14:21;13.60;90.00
42037;DHT22;30340;52.004;5.908;2022-10-16T04:16:47;13.60;90.10
42037;DHT22;30340;52.004;5.908;2022-10-16T04:19:13;13.60;90.10
42037;DHT22;30340;52.004;5.908;2022-10-16T04:21:38;13.60;90.40
42037;DHT22;30340;52.004;5.908;2022-10-16T04:24:04;13.60;90.00
42037;DHT22;30340;52.004;5.908;2022-10-16T04:26:30;13.70;90.00
42037;DHT22;30340;52.004;5.908;2022-10-16T04:28:55;13.70;90.00
42037;DHT22;30340;52.004;5.908;2022-10-16T04:31:21;13.70;90.00
42037;DHT22;30340;52.004;5.908;2022-10-16T04:33:47;13.80;90.00
42037;DHT22;30340;52.004;5.908;2022-10-16T04:36:13;13.70;89.80
42037;DHT22;30340;52.004;5.908;2022-10-16T04:38:39;13.80;89.90
42037;DHT22;30340;52.004;5.908;2022-10-16T04:41:05;13.70;89.80
42037;DHT22;30340;52.004;5.908;2022-10-16T04:43:31;13.70;89.90
42037;DHT22;30340;52.004;5.908;2022-10-16T04:45:57;13.80;89.90
42037;DHT22;30340;52.004;5.908;2022-10-16T04:48:22;13.80;89.80
42037;DHT22;30340;52.004;5.908;2022-10-16T04:50:48;13.80;89.80
42037;DHT22;30340;52.004;5.908;2022-10-16T04:53:14;13.70;89.70
42037;DHT22;30340;52.004;5.908;2022-10-16T04:55:41;13.70;89.80
42037;DHT22;30340;52.004;5.908;2022-10-16T04:58:06;13.70;89.80
42037;DHT22;30340;52.004;5.908;2022-10-16T05:00:32;13.70;89.90
42037;DHT22;30340;52.004;5.908;2022-10-16T05:02:58;13.70;89.90
42037;DHT22;30340;52.004;5.908;2022-10-16T05:05:26;13.70;89.90
42037;DHT22;30340;52.004;5.908;2022-10-16T05:07:52;13.70;90.00
42037;DHT22;30340;52.004;5.908;2022-10-16T05:10:18;13.70;90.00
42037;DHT22;30340;52.004;5.908;2022-10-16T05:12:44;13.70;90.00
42037;DHT22;30340;52.004;5.908;2022-10-16T05:15:10;13.60;90.30
42037;DHT22;30340;52.004;5.908;2022-10-16T05:17:36;13.60;90.00
42037;DHT22;30340;52.004;5.908;2022-10-16T05:20:02;13.60;90.10
42037;DHT22;30340;52.004;5.908;2022-10-16T05:22:28;13.60;90.10
42037;DHT22;30340;52.004;5.908;2022-10-16T05:24:54;13.60;90.20
42037;DHT22;30340;52.004;5.908;2022-10-16T05:27:19;13.50;90.10
42037;DHT22;30340;52.004;5.908;2022-10-16T05:29:46;13.50;90.20
42037;DHT22;30340;52.004;5.908;2022-10-16T05:32:13;13.50;90.20
42037;DHT22;30340;52.004;5.908;2022-10-16T05:34:38;13.50;90.20
42037;DHT22;30340;52.004;5.908;2022-10-16T05:37:04;13.50;90.20
42037;DHT22;30340;52.004;5.908;2022-10-16T05:39:29;13.50;90.20
42037;DHT22;30340;52.004;5.908;2022-10-16T05:41:55;13.40;90.20
42037;DHT22;30340;52.004;5.908;2022-10-16T05:44:20;13.40;90.30
42037;DHT22;30340;52.004;5.908;2022-10-16T05:46:46;13.40;90.30
42037;DHT22;30340;52.004;5.908;2022-10-16T05:49:12;13.40;90.30
42037;DHT22;30340;52.004;5.908;2022-10-16T05:51:37;13.30;90.40
42037;DHT22;30340;52.004;5.908;2022-10-16T05:54:03;13.30;90.40
42037;DHT22;30340;52.004;5.908;2022-10-16T05:56:29;13.30;90.40
42037;DHT22;30340;52.004;5.908;2022-10-16T05:58:54;13.30;90.40
42037;DHT22;30340;52.004;5.908;2022-10-16T06:01:20;13.30;90.40
42037;DHT22;30340;52.004;5.908;2022-10-16T06:03:50;13.30;90.40
42037;DHT22;30340;52.004;5.908;2022-10-16T06:06:24;13.30;90.50
42037;DHT22;30340;52.004;5.908;2022-10-16T06:08:51;13.20;90.50
42037;DHT22;30340;52.004;5.908;2022-10-16T06:11:23;13.20;90.60
42037;DHT22;30340;52.004;5.908;2022-10-16T06:13:50;13.20;90.60
42037;DHT22;30340;52.004;5.908;2022-10-16T06:16:16;13.20;90.60
42037;DHT22;30340;52.004;5.908;2022-10-16T06:18:41;13.20;90.60
42037;DHT22;30340;52.004;5.908;2022-10-16T06:21:12;13.20;90.70
42037;DHT22;30340;52.004;5.908;2022-10-16T06:23:39;13.20;90.70
42037;DHT22;30340;52.004;5.908;2022-10-16T06:26:09;13.20;90.80
42037;DHT22;30340;52.004;5.908;2022-10-16T06:28:35;13.20;90.80
42037;DHT22;30340;52.004;5.908;2022-10-16T06:31:02;13.20;90.80
42037;DHT22;30340;52.004;5.908;2022-10-16T06:33:28;13.30;90.80
42037;DHT22;30340;52.004;5.908;2022-10-16T06:35:53;13.30;90.80
42037;DHT22;30340;52.004;5.908;2022-10-16T06:38:19;13.30;90.80
42037;DHT22;30340;52.004;5.908;2022-10-16T06:40:45;13.30;90.80
42037;DHT22;30340;52.004;5.908;2022-10-16T06:43:10;13.40;90.80
42037;DHT22;30340;52.004;5.908;2022-10-16T06:45:36;13.40;90.80
42037;DHT22;30340;52.004;5.908;2022-10-16T06:48:01;13.50;90.70
42037;DHT22;30340;52.004;5.908;2022-10-16T06:50:27;13.50;90.70
42037;DHT22;30340;52.004;5.908;2022-10-16T06:52:52;13.60;90.70
42037;DHT22;30340;52.004;5.908;2022-10-16T06:55:18;13.60;90.60
42037;DHT22;30340;52.004;5.908;2022-10-16T06:57:46;13.70;90.50
42037;DHT22;30340;52.004;5.908;2022-10-16T07:00:12;13.70;90.50
42037;DHT22;30340;52.004;5.908;2022-10-16T07:02:37;13.70;90.50
42037;DHT22;30340;52.004;5.908;2022-10-16T07:05:03;13.80;90.40
42037;DHT22;30340;52.004;5.908;2022-10-16T07:07:29;13.80;90.40
42037;DHT22;30340;52.004;5.908;2022-10-16T07:09:55;13.80;90.40
42037;DHT22;30340;52.004;5.908;2022-10-16T07:12:20;13.80;90.40
42037;DHT22;30340;52.004;5.908;2022-10-16T07:14:46;13.80;90.30
42037;DHT22;30340;52.004;5.908;2022-10-16T07:17:11;13.80;90.30
42037;DHT22;30340;52.004;5.908;2022-10-16T07:19:37;13.90;90.40
42037;DHT22;30340;52.004;5.908;2022-10-16T07:22:02;14.00;90.30
42037;DHT22;30340;52.004;5.908;2022-10-16T07:24:28;14.00;90.20
42037;DHT22;30340;52.004;5.908;2022-10-16T07:26:53;14.00;90.20
42037;DHT22;30340;52.004;5.908;2022-10-16T07:29:20;14.10;90.20
42037;DHT22;30340;52.004;5.908;2022-10-16T07:31:47;14.20;90.10
42037;DHT22;30340;52.004;5.908;2022-10-16T07:34:14;14.30;90.00
42037;DHT22;30340;52.004;5.908;2022-10-16T07:36:40;14.30;89.80
42037;DHT22;30340;52.004;5.908;2022-10-16T07:39:06;14.30;89.70
42037;DHT22;30340;52.004;5.908;2022-10-16T07:41:31;14.40;89.50
42037;DHT22;30340;52.004;5.908;2022-10-16T07:43:58;14.50;90.00
42037;DHT22;30340;52.004;5.908;2022-10-16T07:46:27;14.50;89.10
42037;DHT22;30340;52.004;5.908;2022-10-16T07:48:53;14.50;89.20
42037;DHT22;30340;52.004;5.908;2022-10-16T07:51:21;14.50;89.00
42037;DHT22;30340;52.004;5.908;2022-10-16T07:53:47;14.50;89.00
42037;DHT22;30340;52.004;5.908;2022-10-16T07:56:13;14.50;89.00
42037;DHT22;30340;52.004;5.908;2022-10-16T07:58:39;14.60;89.00
42037;DHT22;30340;52.004;5.908;2022-10-16T08:01:07;14.70;88.90
42037;DHT22;30340;52.004;5.908;2022-10-16T08:03:33;14.80;88.80
42037;DHT22;30340;52.004;5.908;2022-10-16T08:05:59;14.90;88.60
42037;DHT22;30340;52.004;5.908;2022-10-16T08:08:25;15.00;88.40
42037;DHT22;30340;52.004;5.908;2022-10-16T08:10:51;15.10;88.20
42037;DHT22;30340;52.004;5.908;2022-10-16T08:13:17;15.20;88.00
42037;DHT22;30340;52.004;5.908;2022-10-16T08:15:43;15.30;87.40
42037;DHT22;30340;52.004;5.908;2022-10-16T08:18:11;15.40;87.40
42037;DHT22;30340;52.004;5.908;2022-10-16T08:20:37;15.50;87.30
42037;DHT22;30340;52.004;5.908;2022-10-16T08:23:03;15.60;87.00
42037;DHT22;30340;52.004;5.908;2022-10-16T08:25:29;15.70;86.60
42037;DHT22;30340;52.004;5.908;2022-10-16T08:27:54;15.70;86.20
42037;DHT22;30340;52.004;5.908;2022-10-16T08:30:22;15.80;86.20
42037;DHT22;30340;52.004;5.908;2022-10-16T08:32:48;15.70;86.00
42037;DHT22;30340;52.004;5.908;2022-10-16T08:35:16;15.70;86.20
42037;DHT22;30340;52.004;5.908;2022-10-16T08:37:42;15.70;86.10
42037;DHT22;30340;52.004;5.908;2022-10-16T08:40:19;15.70;86.00
42037;DHT22;30340;52.004;5.908;2022-10-16T08:51:01;15.70;85.70
42037;DHT22;30340;52.004;5.908;2022-10-16T08:53:58;15.80;85.70
42037;DHT22;30340;52.004;5.908;2022-10-16T08:56:25;15.80;85.40
42037;DHT22;30340;52.004;5.908;2022-10-16T08:58:52;15.80;85.30
42037;DHT22;30340;52.004;5.908;2022-10-16T09:01:20;15.80;85.10
42037;DHT22;30340;52.004;5.908;2022-10-16T09:06:51;15.90;84.70
42037;DHT22;30340;52.004;5.908;2022-10-16T09:15:33;15.80;84.40
42037;DHT22;30340;52.004;5.908;2022-10-16T09:25:28;15.90;83.90
42037;DHT22;30340;52.004;5.908;2022-10-16T09:27:54;16.00;83.70
42037;DHT22;30340;52.004;5.908;2022-10-16T09:30:21;16.00;83.20
42037;DHT22;30340;52.004;5.908;2022-10-16T09:32:50;16.00;83.30
42037;DHT22;30340;52.004;5.908;2022-10-16T09:35:20;16.10;82.70
42037;DHT22;30340;52.004;5.908;2022-10-16T09:37:49;16.20;82.90
42037;DHT22;30340;52.004;5.908;2022-10-16T09:40:45;16.30;82.80
42037;DHT22;30340;52.004;5.908;2022-10-16T09:43:40;16.30;82.10
42037;DHT22;30340;52.004;5.908;2022-10-16T09:48:49;16.40;81.80
42037;DHT22;30340;52.004;5.908;2022-10-16T09:51:22;16.50;81.70
42037;DHT22;30340;52.004;5.908;2022-10-16T09:53:48;16.50;81.90
42037;DHT22;30340;52.004;5.908;2022-10-16T09:56:34;16.50;81.80
42037;DHT22;30340;52.004;5.908;2022-10-16T09:59:10;16.60;81.80
42037;DHT22;30340;52.004;5.908;2022-10-16T10:01:41;16.60;81.70
42037;DHT22;30340;52.004;5.908;2022-10-16T10:04:08;16.60;81.40
42037;DHT22;30340;52.004;5.908;2022-10-16T10:06:43;16.70;81.30
42037;DHT22;30340;52.004;5.908;2022-10-16T10:12:03;16.80;80.90
42037;DHT22;30340;52.004;5.908;2022-10-16T10:14:48;16.90;81.00
42037;DHT22;30340;52.004;5.908;2022-10-16T10:17:26;16.90;80.40
42037;DHT22;30340;52.004;5.908;2022-10-16T10:20:00;17.00;80.10
42037;DHT22;30340;52.004;5.908;2022-10-16T10:27:56;17.10;79.60
42037;DHT22;30340;52.004;5.908;2022-10-16T10:30:31;17.20;79.60
42037;DHT22;30340;52.004;5.908;2022-10-16T10:47:00;17.60;76.80
42037;DHT22;30340;52.004;5.908;2022-10-16T10:49:53;17.70;76.90
42037;DHT22;30340;52.004;5.908;2022-10-16T10:56:23;18.00;76.10
42037;DHT22;30340;52.004;5.908;2022-10-16T10:58:22;18.10;75.30
42037;DHT22;30340;52.004;5.908;2022-10-16T11:06:24;18.30;74.30
42037;DHT22;30340;52.004;5.908;2022-10-16T11:11:42;18.50;72.80
42037;DHT22;30340;52.004;5.908;2022-10-16T11:14:26;18.40;71.60
42037;DHT22;30340;52.004;5.908;2022-10-16T11:19:28;18.40;71.10
42037;DHT22;30340;52.004;5.908;2022-10-16T11:24:55;18.30;71.20
42037;DHT22;30340;52.004;5.908;2022-10-16T11:30:22;18.30;71.10
42037;DHT22;30340;52.004;5.908;2022-10-16T11:33:04;18.30;70.10
42037;DHT22;30340;52.004;5.908;2022-10-16T11:36:14;18.40;70.00
42037;DHT22;30340;52.004;5.908;2022-10-16T11:41:32;18.60;69.20
42037;DHT22;30340;52.004;5.908;2022-10-16T11:44:55;18.70;68.80
42037;DHT22;30340;52.004;5.908;2022-10-16T11:47:41;18.60;68.60
42037;DHT22;30340;52.004;5.908;2022-10-16T11:53:04;18.50;68.80
42037;DHT22;30340;52.004;5.908;2022-10-16T11:55:42;18.60;68.70
42037;DHT22;30340;52.004;5.908;2022-10-16T11:58:16;18.50;68.70
42037;DHT22;30340;52.004;5.908;2022-10-16T12:00:58;18.50;68.60
42037;DHT22;30340;52.004;5.908;2022-10-16T12:03:34;18.50;68.80
42037;DHT22;30340;52.004;5.908;2022-10-16T12:08:28;18.80;68.40
42037;DHT22;30340;52.004;5.908;2022-10-16T12:10:54;19.00;67.10
42037;DHT22;30340;52.004;5.908;2022-10-16T12:13:37;19.10;65.70
42037;DHT22;30340;52.004;5.908;2022-10-16T12:18:45;19.30;64.90
42037;DHT22;30340;52.004;5.908;2022-10-16T12:21:12;19.40;64.60
42037;DHT22;30340;52.004;5.908;2022-10-16T12:23:52;19.50;64.50
42037;DHT22;30340;52.004;5.908;2022-10-16T12:26:30;19.60;64.20
42037;DHT22;30340;52.004;5.908;2022-10-16T12:31:47;19.60;63.70
42037;DHT22;30340;52.004;5.908;2022-10-16T12:34:41;19.40;63.50
42037;DHT22;30340;52.004;5.908;2022-10-16T12:37:10;19.40;63.90
42037;DHT22;30340;52.004;5.908;2022-10-16T12:39:36;19.40;64.30
42037;DHT22;30340;52.004;5.908;2022-10-16T12:42:05;19.50;64.60
42037;DHT22;30340;52.004;5.908;2022-10-16T12:44:34;19.50;63.90
42037;DHT22;30340;52.004;5.908;2022-10-16T12:47:01;19.40;63.90
42037;DHT22;30340;52.004;5.908;2022-10-16T12:49:32;19.50;63.90
42037;DHT22;30340;52.004;5.908;2022-10-16T12:52:00;19.70;64.20
42037;DHT22;30340;52.004;5.908;2022-10-16T12:54:31;19.70;63.40
42037;DHT22;30340;52.004;5.908;2022-10-16T12:57:27;19.80;63.00
42037;DHT22;30340;52.004;5.908;2022-10-16T13:17:52;20.30;62.30
42037;DHT22;30340;52.004;5.908;2022-10-16T13:20:35;20.40;62.50
42037;DHT22;30340;52.004;5.908;2022-10-16T13:25:56;20.80;62.70
42037;DHT22;30340;52.004;5.908;2022-10-16T13:28:29;20.90;62.30
42037;DHT22;30340;52.004;5.908;2022-10-16T13:31:00;20.80;59.80
42037;DHT22;30340;52.004;5.908;2022-10-16T13:33:38;20.80;60.50
42037;DHT22;30340;52.004;5.908;2022-10-16T13:36:05;20.90;60.90
42037;DHT22;30340;52.004;5.908;2022-10-16T13:38:35;20.90;60.40
42037;DHT22;30340;52.004;5.908;2022-10-16T13:41:04;21.00;60.30
42037;DHT22;30340;52.004;5.908;2022-10-16T13:43:38;21.00;60.30
42037;DHT22;30340;52.004;5.908;2022-10-16T13:46:16;21.00;59.50
42037;DHT22;30340;52.004;5.908;2022-10-16T13:48:43;20.90;59.20
42037;DHT22;30340;52.004;5.908;2022-10-16T13:51:12;20.90;59.50
42037;DHT22;30340;52.004;5.908;2022-10-16T13:53:38;20.90;59.60
42037;DHT22;30340;52.004;5.908;2022-10-16T13:56:06;20.90;59.60
42037;DHT22;30340;52.004;5.908;2022-10-16T13:58:33;21.00;59.80
42037;DHT22;30340;52.004;5.908;2022-10-16T14:01:03;21.10;60.20
42037;DHT22;30340;52.004;5.908;2022-10-16T14:03:31;21.20;60.00
42037;DHT22;30340;52.004;5.908;2022-10-16T14:06:01;21.30;60.10
42037;DHT22;30340;52.004;5.908;2022-10-16T14:08:28;21.30;60.00
42037;DHT22;30340;52.004;5.908;2022-10-16T14:10:56;21.30;60.10
42037;DHT22;30340;52.004;5.908;2022-10-16T14:13:37;21.20;60.10
42037;DHT22;30340;52.004;5.908;2022-10-16T14:16:09;21.20;60.30
42037;DHT22;30340;52.004;5.908;2022-10-16T14:18:37;21.10;59.90
42037;DHT22;30340;52.004;5.908;2022-10-16T14:21:06;20.90;59.60
42037;DHT22;30340;52.004;5.908;2022-10-16T14:23:37;20.80;60.00
42037;DHT22;30340;52.004;5.908;2022-10-16T14:28:35;20.80;60.50
42037;DHT22;30340;52.004;5.908;2022-10-16T14:31:03;20.80;60.80
42037;DHT22;30340;52.004;5.908;2022-10-16T14:33:45;20.80;60.60
42037;DHT22;30340;52.004;5.908;2022-10-16T14:36:12;20.70;59.90
42037;DHT22;30340;52.004;5.908;2022-10-16T14:38:40;20.60;59.30
42037;DHT22;30340;52.004;5.908;2022-10-16T14:41:06;20.50;59.20
42037;DHT22;30340;52.004;5.908;2022-10-16T14:43:37;20.50;59.40
42037;DHT22;30340;52.004;5.908;2022-10-16T14:46:47;20.40;59.50
42037;DHT22;30340;52.004;5.908;2022-10-16T14:49:16;20.40;59.90
42037;DHT22;30340;52.004;5.908;2022-10-16T14:51:43;20.40;59.80
42037;DHT22;30340;52.004;5.908;2022-10-16T14:54:14;20.10;59.50
42037;DHT22;30340;52.004;5.908;2022-10-16T14:56:54;20.00;60.20
42037;DHT22;30340;52.004;5.908;2022-10-16T15:01:55;19.90;60.50
42037;DHT22;30340;52.004;5.908;2022-10-16T15:04:20;19.80;60.90
42037;DHT22;30340;52.004;5.908;2022-10-16T15:06:46;19.90;61.20
42037;DHT22;30340;52.004;5.908;2022-10-16T15:09:11;19.90;61.40
42037;DHT22;30340;52.004;5.908;2022-10-16T15:11:37;19.90;61.20
42037;DHT22;30340;52.004;5.908;2022-10-16T15:14:03;19.90;61.50
42037;DHT22;30340;52.004;5.908;2022-10-16T15:16:29;19.90;61.50
42037;DHT22;30340;52.004;5.908;2022-10-16T15:18:55;19.90;61.70
42037;DHT22;30340;52.004;5.908;2022-10-16T15:21:25;19.90;61.90
42037;DHT22;30340;52.004;5.908;2022-10-16T15:23:51;19.90;62.00
42037;DHT22;30340;52.004;5.908;2022-10-16T15:26:17;19.80;62.00
42037;DHT22;30340;52.004;5.908;2022-10-16T15:28:42;19.70;62.00
42037;DHT22;30340;52.004;5.908;2022-10-16T15:31:08;19.60;62.20
42037;DHT22;30340;52.004;5.908;2022-10-16T15:33:34;19.70;62.60
42037;DHT22;30340;52.004;5.908;2022-10-16T15:36:01;19.60;62.80
42037;DHT22;30340;52.004;5.908;2022-10-16T15:38:28;19.60;62.90
42037;DHT22;30340;52.004;5.908;2022-10-16T15:40:54;19.50;63.10
42037;DHT22;30340;52.004;5.908;2022-10-16T15:43:20;19.50;63.40
42037;DHT22;30340;52.004;5.908;2022-10-16T15:46:04;19.40;63.60
42037;DHT22;30340;52.004;5.908;2022-10-16T15:48:31;19.40;64.00
42037;DHT22;30340;52.004;5.908;2022-10-16T15:50:57;19.30;64.30
42037;DHT22;30340;52.004;5.908;2022-10-16T15:53:23;19.30;64.60
42037;DHT22;30340;52.004;5.908;2022-10-16T15:55:48;19.30;64.80
42037;DHT22;30340;52.004;5.908;2022-10-16T15:58:14;19.30;65.10
42037;DHT22;30340;52.004;5.908;2022-10-16T16:00:40;19.30;65.20
42037;DHT22;30340;52.004;5.908;2022-10-16T16:03:05;19.30;65.40
42037;DHT22;30340;52.004;5.908;2022-10-16T16:05:31;19.30;65.70
42037;DHT22;30340;52.004;5.908;2022-10-16T16:07:59;19.20;65.90
42037;DHT22;30340;52.004;5.908;2022-10-16T16:10:24;19.10;66.30
42037;DHT22;30340;52.004;5.908;2022-10-16T16:12:50;19.10;66.70
42037;DHT22;30340;52.004;5.908;2022-10-16T16:15:19;19.00;67.00
42037;DHT22;30340;52.004;5.908;2022-10-16T16:17:45;19.00;67.30
42037;DHT22;30340;52.004;5.908;2022-10-16T16:20:11;18.90;67.60
42037;DHT22;30340;52.004;5.908;2022-10-16T16:22:36;18.90;68.10
42037;DHT22;30340;52.004;5.908;2022-10-16T16:25:02;18.80;68.30
42037;DHT22;30340;52.004;5.908;2022-10-16T16:27:28;18.70;68.50
42037;DHT22;30340;52.004;5.908;2022-10-16T16:29:55;18.60;68.80
42037;DHT22;30340;52.004;5.908;2022-10-16T16:32:21;18.60;69.00
42037;DHT22;30340;52.004;5.908;2022-10-16T16:34:47;18.50;69.20
42037;DHT22;30340;52.004;5.908;2022-10-16T16:37:12;18.50;69.30
42037;DHT22;30340;52.004;5.908;2022-10-16T16:39:38;18.40;69.40
42037;DHT22;30340;52.004;5.908;2022-10-16T16:42:04;18.50;69.60
42037;DHT22;30340;52.004;5.908;2022-10-16T16:44:31;18.40;69.80
42037;DHT22;30340;52.004;5.908;2022-10-16T16:46:57;18.40;69.90
42037;DHT22;30340;52.004;5.908;2022-10-16T16:49:23;18.40;70.00
42037;DHT22;30340;52.004;5.908;2022-10-16T16:51:48;18.30;70.20
42037;DHT22;30340;52.004;5.908;2022-10-16T16:54:14;18.30;70.40
42037;DHT22;30340;52.004;5.908;2022-10-16T16:56:40;18.30;70.50
42037;DHT22;30340;52.004;5.908;2022-10-16T16:59:18;18.30;70.70
42037;DHT22;30340;52.004;5.908;2022-10-16T17:01:45;18.20;70.80
42037;DHT22;30340;52.004;5.908;2022-10-16T17:04:11;18.10;71.10
42037;DHT22;30340;52.004;5.908;2022-10-16T17:06:37;18.10;71.40
42037;DHT22;30340;52.004;5.908;2022-10-16T17:09:04;18.10;71.50
42037;DHT22;30340;52.004;5.908;2022-10-16T17:11:30;18.00;71.60
42037;DHT22;30340;52.004;5.908;2022-10-16T17:13:57;18.00;71.70
42037;DHT22;30340;52.004;5.908;2022-10-16T17:16:29;17.90;71.90
42037;DHT22;30340;52.004;5.908;2022-10-16T17:18:55;17.80;72.00
42037;DHT22;30340;52.004;5.908;2022-10-16T17:21:23;17.80;72.10
42037;DHT22;30340;52.004;5.908;2022-10-16T17:23:51;17.70;72.10
42037;DHT22;30340;52.004;5.908;2022-10-16T17:26:18;17.70;72.10
42037;DHT22;30340;52.004;5.908;2022-10-16T17:28:44;17.60;72.20
42037;DHT22;30340;52.004;5.908;2022-10-16T17:31:16;17.50;72.10
42037;DHT22;30340;52.004;5.908;2022-10-16T17:33:42;17.50;72.20
42037;DHT22;30340;52.004;5.908;2022-10-16T17:36:08;17.50;72.20
42037;DHT22;30340;52.004;5.908;2022-10-16T17:38:35;17.50;72.20
42037;DHT22;30340;52.004;5.908;2022-10-16T17:41:21;17.50;72.20
42037;DHT22;30340;52.004;5.908;2022-10-16T17:43:47;17.40;72.10